createdAt,value
2017-08-01T00:01:35.147Z,6.90
2017-08-01T00:04:04.270Z,7.10
2017-08-01T00:06:32.641Z,8.13
2017-08-01T00:09:00.922Z,8.40
2017-08-01T00:11:29.209Z,7.37
2017-08-01T00:13:58.268Z,7.53
2017-08-01T00:16:26.584Z,7.27
2017-08-01T00:18:54.866Z,6.40
2017-08-01T00:21:23.156Z,7.30
2017-08-01T00:23:52.223Z,7.47
2017-08-01T00:26:20.521Z,7.50
2017-08-01T00:28:48.810Z,7.50
2017-08-01T00:31:17.078Z,8.60
2017-08-01T00:33:45.387Z,7.90
2017-08-01T00:36:13.636Z,8.40
2017-08-01T00:38:42.690Z,7.40
2017-08-01T00:41:10.989Z,9.10
2017-08-01T00:43:40.024Z,9.27
2017-08-01T00:46:08.302Z,8.17
2017-08-01T00:48:36.638Z,7.53
2017-08-01T00:51:04.944Z,8.37
2017-08-01T00:53:33.974Z,7.97
2017-08-01T00:56:02.287Z,7.07
2017-08-01T00:58:31.342Z,7.30
2017-08-01T01:00:59.593Z,6.87
2017-08-01T01:03:27.897Z,6.63
2017-08-01T01:05:56.164Z,6.27
2017-08-01T01:08:24.420Z,7.03
2017-08-01T01:10:53.006Z,6.73
2017-08-01T01:13:21.296Z,7.00
2017-08-01T01:15:49.590Z,7.07
2017-08-01T01:18:18.632Z,5.97
2017-08-01T01:20:46.890Z,5.90
2017-08-01T01:23:15.179Z,5.70
2017-08-01T01:25:43.499Z,6.00
2017-08-01T01:28:11.754Z,7.87
2017-08-01T01:30:40.000Z,7.90
2017-08-01T01:33:08.294Z,7.67
2017-08-01T01:35:36.582Z,8.00
2017-08-01T01:38:07.666Z,8.57
2017-08-01T01:40:35.981Z,7.90
2017-08-01T01:43:04.279Z,7.70
2017-08-01T01:45:32.587Z,8.70
2017-08-01T01:48:02.035Z,9.17
2017-08-01T01:50:30.304Z,9.17
2017-08-01T01:52:58.557Z,8.87
2017-08-01T01:55:26.911Z,8.70
2017-08-01T01:57:55.172Z,8.40
2017-08-01T02:00:23.467Z,8.50
2017-08-01T02:02:51.744Z,8.90
2017-08-01T02:05:20.763Z,9.00
2017-08-01T02:07:49.065Z,9.30
2017-08-01T02:10:18.143Z,8.87
2017-08-01T02:12:46.404Z,8.70
2017-08-01T02:15:15.429Z,9.30
2017-08-01T02:17:43.697Z,8.90
2017-08-01T02:20:11.942Z,9.13
2017-08-01T02:22:40.218Z,8.90
2017-08-01T02:25:08.883Z,8.90
2017-08-01T02:27:37.157Z,9.47
2017-08-01T02:30:05.442Z,8.87
2017-08-01T02:32:33.738Z,8.77
2017-08-01T02:35:01.989Z,8.60
2017-08-01T02:37:31.030Z,8.70
2017-08-01T02:39:59.313Z,9.23
2017-08-01T02:42:28.132Z,8.93
2017-08-01T02:44:56.430Z,8.87
2017-08-01T02:47:24.735Z,8.70
2017-08-01T02:49:53.043Z,9.23
2017-08-01T02:52:21.296Z,8.93
2017-08-01T02:54:49.594Z,9.17
2017-08-01T02:57:18.645Z,9.40
2017-08-01T02:59:46.901Z,9.47
2017-08-01T03:02:15.506Z,9.80
2017-08-01T03:04:44.566Z,9.60
2017-08-01T03:07:13.588Z,9.67
2017-08-01T03:09:41.901Z,9.60
2017-08-01T03:12:10.157Z,9.80
2017-08-01T03:14:39.102Z,10.13
2017-08-01T03:17:07.405Z,10.30
2017-08-01T03:19:36.424Z,10.40
2017-08-01T03:22:04.680Z,10.40
2017-08-01T03:24:32.963Z,10.33
2017-08-01T03:27:01.209Z,9.70
2017-08-01T03:29:29.503Z,10.43
2017-08-01T03:31:57.801Z,10.13
2017-08-01T03:34:26.057Z,9.80
2017-08-01T03:36:54.342Z,10.60
2017-08-01T03:39:22.978Z,9.80
2017-08-01T03:41:52.042Z,10.47
2017-08-01T03:44:21.073Z,10.30
2017-08-01T03:46:49.191Z,9.70
2017-08-01T03:49:17.478Z,10.20
2017-08-01T03:51:45.740Z,9.67
2017-08-01T03:54:14.014Z,10.13
2017-08-01T03:56:42.271Z,9.50
2017-08-01T03:59:10.521Z,10.63
2017-08-01T04:01:38.789Z,11.00
2017-08-01T04:04:07.040Z,11.60
2017-08-01T04:06:35.348Z,10.10
2017-08-01T04:09:03.921Z,10.70
2017-08-01T04:11:32.991Z,10.73
2017-08-01T04:14:01.287Z,10.67
2017-08-01T04:16:29.980Z,11.10
2017-08-01T04:18:58.233Z,11.57
2017-08-01T04:21:26.517Z,11.20
2017-08-01T04:23:54.792Z,11.23
2017-08-01T04:26:23.082Z,10.80
2017-08-01T04:28:52.133Z,10.70
2017-08-01T04:31:20.446Z,12.20
2017-08-01T04:33:48.701Z,11.07
2017-08-01T04:36:16.998Z,11.20
2017-08-01T04:38:45.324Z,10.40
2017-08-01T04:41:13.570Z,9.77
2017-08-01T04:43:41.866Z,9.43
2017-08-01T04:46:10.178Z,9.50
2017-08-01T04:48:39.235Z,8.97
2017-08-01T04:51:07.484Z,8.60
2017-08-01T04:53:35.757Z,8.27
2017-08-01T04:56:04.037Z,7.83
2017-08-01T04:58:33.100Z,7.97
2017-08-01T05:01:02.133Z,7.67
2017-08-01T05:03:30.427Z,7.77
2017-08-01T05:05:58.681Z,8.17
2017-08-01T05:08:26.937Z,7.40
2017-08-01T05:10:55.218Z,7.73
2017-08-01T05:13:24.275Z,6.67
2017-08-01T05:15:52.541Z,7.60
2017-08-01T05:18:20.815Z,6.97
2017-08-01T05:20:49.103Z,6.83
2017-08-01T05:23:17.411Z,7.00
2017-08-01T05:25:45.660Z,6.83
2017-08-01T05:28:13.937Z,6.80
2017-08-01T05:30:42.237Z,6.13
2017-08-01T05:33:10.489Z,6.13
2017-08-01T05:35:39.508Z,6.07
2017-08-01T05:38:07.769Z,5.87
2017-08-01T05:40:36.025Z,6.10
2017-08-01T05:43:04.306Z,5.73
2017-08-01T05:45:32.607Z,6.10
2017-08-01T05:48:01.658Z,5.30
2017-08-01T05:50:29.938Z,5.53
2017-08-01T05:52:58.960Z,5.67
2017-08-01T05:55:27.270Z,5.10
2017-08-01T05:57:56.320Z,5.47
2017-08-01T06:00:24.596Z,5.00
2017-08-01T06:02:52.866Z,5.50
2017-08-01T06:05:21.881Z,4.77
2017-08-01T06:07:50.158Z,5.03
2017-08-01T06:10:18.435Z,4.97
2017-08-01T06:12:46.505Z,4.80
2017-08-01T06:15:14.617Z,4.53
2017-08-01T06:17:42.904Z,4.70
2017-08-01T06:20:11.186Z,4.97
2017-08-01T06:22:39.494Z,4.60
2017-08-01T06:25:07.744Z,4.23
2017-08-01T06:27:36.044Z,4.40
2017-08-01T06:30:04.347Z,4.70
2017-08-01T06:32:33.202Z,4.50
2017-08-01T06:35:01.450Z,4.33
2017-08-01T06:37:29.806Z,4.20
2017-08-01T06:39:58.077Z,3.47
2017-08-01T06:42:26.358Z,3.77
2017-08-01T06:44:55.425Z,4.50
2017-08-01T06:47:24.483Z,4.20
2017-08-01T06:49:52.770Z,4.37
2017-08-01T06:52:21.813Z,3.43
2017-08-01T06:54:50.065Z,3.70
2017-08-01T06:57:18.435Z,4.00
2017-08-01T06:59:46.725Z,3.60
2017-08-01T07:02:14.968Z,3.80
2017-08-01T07:04:43.232Z,4.10
2017-08-01T07:07:11.517Z,4.13
2017-08-01T07:09:40.552Z,3.60
2017-08-01T07:12:08.850Z,4.23
2017-08-01T07:14:37.913Z,3.77
2017-08-01T07:17:06.198Z,3.60
2017-08-01T07:19:35.209Z,3.43
2017-08-01T07:22:03.493Z,3.30
2017-08-01T07:24:31.748Z,4.30
2017-08-01T07:27:00.009Z,3.77
2017-08-01T07:29:28.281Z,3.50
2017-08-01T07:31:56.530Z,3.23
2017-08-01T07:34:24.814Z,3.23
2017-08-01T07:36:53.879Z,2.90
2017-08-01T07:39:22.145Z,3.37
2017-08-01T07:41:50.449Z,2.93
2017-08-01T07:44:18.726Z,3.03
2017-08-01T07:46:47.006Z,2.93
2017-08-01T07:49:15.065Z,3.00
2017-08-01T07:51:43.336Z,2.80
2017-08-01T07:54:11.823Z,2.63
2017-08-01T07:56:40.937Z,2.63
2017-08-01T07:59:09.371Z,2.50
2017-08-01T08:01:38.385Z,2.70
2017-08-01T08:04:06.674Z,2.60
2017-08-01T08:06:34.971Z,3.20
2017-08-01T08:09:03.130Z,2.80
2017-08-01T08:11:31.402Z,2.70
2017-08-01T08:13:59.709Z,2.53
2017-08-01T08:16:27.961Z,3.23
2017-08-01T08:18:56.205Z,2.67
2017-08-01T08:21:24.481Z,2.70
2017-08-01T08:23:52.738Z,2.83
2017-08-01T08:26:21.023Z,2.50
2017-08-01T08:28:49.323Z,3.07
2017-08-01T08:31:17.611Z,2.43
2017-08-01T08:33:45.874Z,2.33
2017-08-01T08:36:14.175Z,2.73
2017-08-01T08:38:43.230Z,2.23
2017-08-01T08:41:11.294Z,2.43
2017-08-01T08:43:39.607Z,2.60
2017-08-01T08:46:07.890Z,2.10
2017-08-01T08:48:36.166Z,2.20
2017-08-01T08:51:04.471Z,2.37
2017-08-01T08:53:32.728Z,2.13
2017-08-01T08:56:00.975Z,2.57
2017-08-01T08:58:30.038Z,2.37
2017-08-01T09:00:58.330Z,2.33
2017-08-01T09:03:26.613Z,2.63
2017-08-01T09:05:54.894Z,2.40
2017-08-01T09:08:23.178Z,2.20
2017-08-01T09:10:51.425Z,2.10
2017-08-01T09:13:19.704Z,2.17
2017-08-01T09:15:47.985Z,2.00
2017-08-01T09:18:16.276Z,2.03
2017-08-01T09:20:44.583Z,2.50
2017-08-01T09:23:12.874Z,1.83
2017-08-01T09:25:41.167Z,2.13
2017-08-01T09:28:09.483Z,1.90
2017-08-01T09:30:38.492Z,2.17
2017-08-01T09:33:06.779Z,1.97
2017-08-01T09:35:35.057Z,2.17
2017-08-01T09:38:03.330Z,2.40
2017-08-01T09:40:32.349Z,2.03
2017-08-01T09:43:00.617Z,2.00
2017-08-01T09:45:28.898Z,1.90
2017-08-01T09:47:57.149Z,2.20
2017-08-01T09:50:25.442Z,2.40
2017-08-01T09:52:54.478Z,1.90
2017-08-01T09:55:22.737Z,2.37
2017-08-01T09:57:51.048Z,2.50
2017-08-01T10:00:20.082Z,1.97
2017-08-01T10:02:48.337Z,1.80
2017-08-01T10:05:16.663Z,1.90
2017-08-01T10:07:44.916Z,1.87
2017-08-01T10:10:13.975Z,1.90
2017-08-01T10:12:43.062Z,2.40
2017-08-01T10:15:12.118Z,2.17
2017-08-01T10:17:40.415Z,2.20
2017-08-01T10:20:08.714Z,1.93
2017-08-01T10:22:36.994Z,2.00
2017-08-01T10:25:05.250Z,2.03
2017-08-01T10:27:33.542Z,2.13
2017-08-01T10:30:02.552Z,1.70
2017-08-01T10:32:30.806Z,2.10
2017-08-01T10:34:59.110Z,2.10
2017-08-01T10:37:27.399Z,1.80
2017-08-01T10:39:56.417Z,2.00
2017-08-01T10:42:24.682Z,1.83
2017-08-01T10:44:52.966Z,1.70
2017-08-01T10:47:21.275Z,2.00
2017-08-01T10:49:49.591Z,1.83
2017-08-01T10:52:17.839Z,1.73
2017-08-01T10:54:47.622Z,1.70
2017-08-01T10:57:15.919Z,1.73
2017-08-01T10:59:43.983Z,1.90
2017-08-01T11:02:13.009Z,1.77
2017-08-01T11:04:41.368Z,2.00
2017-08-01T11:07:09.665Z,2.10
2017-08-01T11:09:37.938Z,1.60
2017-08-01T11:12:06.980Z,1.90
2017-08-01T11:14:35.268Z,1.77
2017-08-01T11:17:03.516Z,1.93
2017-08-01T11:19:31.794Z,1.53
2017-08-01T11:22:00.084Z,1.33
2017-08-01T11:24:28.377Z,1.70
2017-08-01T11:26:56.644Z,1.47
2017-08-01T11:29:24.893Z,1.50
2017-08-01T11:31:53.174Z,1.60
2017-08-01T11:34:21.473Z,1.77
2017-08-01T11:36:49.734Z,1.40
2017-08-01T11:39:17.741Z,1.67
2017-08-01T11:41:46.063Z,1.60
2017-08-01T11:44:14.382Z,1.30
2017-08-01T11:46:42.664Z,1.40
2017-08-01T11:49:11.738Z,1.93
2017-08-01T11:51:40.835Z,1.50
2017-08-01T11:54:09.126Z,1.70
2017-08-01T11:56:37.470Z,1.50
2017-08-01T11:59:05.734Z,1.60
2017-08-01T12:01:33.989Z,1.50
2017-08-01T12:04:02.295Z,1.50
2017-08-01T12:06:30.552Z,1.50
2017-08-01T12:08:58.803Z,1.40
2017-08-01T12:11:27.094Z,1.63
2017-08-01T12:13:56.112Z,1.43
2017-08-01T12:16:24.364Z,1.50
2017-08-01T12:18:52.651Z,1.50
2017-08-01T12:21:20.930Z,1.47
2017-08-01T12:23:49.048Z,1.60
2017-08-01T12:26:17.340Z,1.50
2017-08-01T12:28:45.630Z,1.40
2017-08-01T12:31:14.762Z,1.60
2017-08-01T12:33:43.085Z,1.30
2017-08-01T12:36:11.381Z,1.40
2017-08-01T12:38:39.662Z,1.47
2017-08-01T12:41:07.969Z,1.30
2017-08-01T12:43:36.264Z,1.50
2017-08-01T12:46:04.522Z,1.30
2017-08-01T12:48:32.837Z,1.30
2017-08-01T12:51:01.890Z,1.57
2017-08-01T12:53:30.182Z,1.40
2017-08-01T12:55:58.496Z,1.80
2017-08-01T12:58:26.783Z,1.50
2017-08-01T13:00:55.966Z,1.30
2017-08-01T13:03:24.994Z,1.50
2017-08-01T13:05:53.973Z,1.40
2017-08-01T13:08:22.225Z,1.10
2017-08-01T13:10:50.556Z,1.50
2017-08-01T13:13:19.006Z,1.40
2017-08-01T13:15:47.884Z,1.40
2017-08-01T13:18:16.950Z,1.27
2017-08-01T13:20:45.247Z,1.50
2017-08-01T13:23:13.555Z,1.40
2017-08-01T13:25:42.102Z,1.60
2017-08-01T13:28:10.340Z,1.40
2017-08-01T13:30:38.402Z,1.77
2017-08-01T13:33:06.674Z,1.50
2017-08-01T13:35:34.959Z,1.70
2017-08-01T13:38:03.301Z,1.67
2017-08-01T13:40:31.573Z,1.30
2017-08-01T13:42:59.855Z,1.30
2017-08-01T13:45:28.879Z,1.20
2017-08-01T13:47:57.178Z,1.53
2017-08-01T13:50:25.474Z,1.50
2017-08-01T13:52:54.540Z,1.40
2017-08-01T13:55:23.624Z,1.90
2017-08-01T13:57:52.680Z,1.40
2017-08-01T14:00:20.970Z,1.33
2017-08-01T14:02:50.005Z,1.70
2017-08-01T14:05:18.298Z,1.80
2017-08-01T14:07:47.313Z,1.50
2017-08-01T14:10:15.670Z,1.57
2017-08-01T14:12:43.771Z,1.43
2017-08-01T14:15:12.055Z,1.50
2017-08-01T14:17:41.120Z,1.77
2017-08-01T14:20:10.133Z,1.50
2017-08-01T14:22:38.526Z,1.50
2017-08-01T14:25:06.629Z,1.20
2017-08-01T14:27:35.650Z,1.50
2017-08-01T14:30:03.948Z,1.50
2017-08-01T14:32:32.217Z,1.40
2017-08-01T14:35:00.465Z,1.40
2017-08-01T14:37:28.771Z,1.53
2017-08-01T14:39:57.078Z,1.70
2017-08-01T14:42:25.332Z,1.43
2017-08-01T14:44:53.581Z,1.60
2017-08-01T14:47:21.858Z,1.60
2017-08-01T14:49:50.147Z,1.80
2017-08-01T14:52:19.207Z,1.53
2017-08-01T14:54:47.502Z,1.50
2017-08-01T14:57:15.796Z,1.53
2017-08-01T14:59:44.046Z,1.53
2017-08-01T15:02:12.321Z,1.50
2017-08-01T15:04:40.561Z,1.33
2017-08-01T15:07:08.852Z,1.40
2017-08-01T15:09:37.123Z,1.63
2017-08-01T15:12:05.418Z,1.57
2017-08-01T15:14:33.711Z,1.63
2017-08-01T15:17:02.027Z,1.60
2017-08-01T15:19:31.041Z,1.63
2017-08-01T15:21:59.293Z,1.57
2017-08-01T15:24:27.598Z,1.57
2017-08-01T15:26:55.853Z,1.50
2017-08-01T15:29:24.135Z,1.77
2017-08-01T15:31:53.169Z,1.47
2017-08-01T15:34:21.267Z,1.30
2017-08-01T15:36:50.152Z,1.50
2017-08-01T15:39:19.214Z,1.50
2017-08-01T15:41:47.461Z,1.50
2017-08-01T15:44:15.747Z,1.53
2017-08-01T15:46:44.839Z,1.70
2017-08-01T15:49:13.103Z,1.50
2017-08-01T15:51:41.449Z,1.70
2017-08-01T15:54:10.481Z,1.70
2017-08-01T15:56:39.121Z,1.60
2017-08-01T15:59:07.382Z,1.63
2017-08-01T16:01:35.645Z,1.40
2017-08-01T16:04:03.908Z,1.50
2017-08-01T16:06:32.158Z,1.53
2017-08-01T16:09:00.472Z,1.50
2017-08-01T16:11:28.763Z,1.53
2017-08-01T16:13:57.785Z,1.50
2017-08-01T16:16:26.048Z,1.70
2017-08-01T16:18:54.343Z,1.40
2017-08-01T16:21:23.393Z,1.20
2017-08-01T16:23:51.665Z,1.57
2017-08-01T16:26:19.914Z,1.30
2017-08-01T16:28:48.198Z,1.50
2017-08-01T16:31:17.229Z,1.40
2017-08-01T16:33:45.505Z,1.40
2017-08-01T16:36:13.757Z,1.43
2017-08-01T16:38:42.017Z,1.43
2017-08-01T16:41:10.293Z,1.53
2017-08-01T16:43:38.558Z,1.40
2017-08-01T16:46:06.860Z,1.30
2017-08-01T16:48:35.146Z,1.20
2017-08-01T16:51:03.399Z,1.23
2017-08-01T16:53:31.702Z,1.33
2017-08-01T16:55:59.948Z,1.30
2017-08-01T16:58:28.197Z,1.37
2017-08-01T17:00:56.464Z,1.30
2017-08-01T17:03:24.878Z,1.57
2017-08-01T17:05:53.163Z,1.27
2017-08-01T17:08:21.416Z,1.20
2017-08-01T17:10:49.696Z,1.30
2017-08-01T17:13:17.982Z,1.20
2017-08-01T17:15:46.290Z,1.40
2017-08-01T17:18:14.544Z,1.60
2017-08-01T17:20:42.832Z,1.20
2017-08-01T17:23:10.901Z,1.30
2017-08-01T17:25:39.173Z,1.10
2017-08-01T17:28:07.425Z,1.23
2017-08-01T17:30:35.693Z,1.17
2017-08-01T17:33:03.983Z,1.20
2017-08-01T17:35:32.992Z,1.23
2017-08-01T17:38:01.328Z,1.20
2017-08-01T17:40:30.342Z,1.37
2017-08-01T17:42:58.593Z,1.20
2017-08-01T17:45:26.883Z,1.07
2017-08-01T17:47:55.167Z,1.20
2017-08-01T17:50:24.214Z,1.07
2017-08-01T17:52:52.474Z,1.30
2017-08-01T17:55:20.725Z,1.47
2017-08-01T17:57:49.008Z,1.20
2017-08-01T18:00:17.322Z,1.00
2017-08-01T18:02:45.569Z,1.10
2017-08-01T18:05:13.856Z,1.30
2017-08-01T18:07:42.121Z,1.17
2017-08-01T18:10:10.364Z,1.13
2017-08-01T18:12:38.649Z,1.20
2017-08-01T18:15:06.921Z,1.10
2017-08-01T18:17:35.165Z,1.20
2017-08-01T18:20:03.419Z,1.20
2017-08-01T18:22:31.709Z,1.10
2017-08-01T18:24:59.995Z,1.03
2017-08-01T18:27:29.043Z,1.10
2017-08-01T18:29:57.350Z,1.20
2017-08-01T18:32:25.625Z,1.10
2017-08-01T18:34:53.874Z,1.23
2017-08-01T18:37:22.172Z,1.23
2017-08-01T18:39:50.431Z,1.20
2017-08-01T18:42:18.682Z,1.20
2017-08-01T18:44:46.965Z,1.10
2017-08-01T18:47:15.259Z,1.10
2017-08-01T18:49:43.557Z,1.30
2017-08-01T18:52:11.895Z,1.40
2017-08-01T18:54:40.181Z,1.40
2017-08-01T18:57:08.478Z,1.57
2017-08-01T18:59:37.517Z,1.73
2017-08-01T19:02:05.807Z,1.60
2017-08-01T19:04:34.069Z,1.10
2017-08-01T19:07:02.345Z,1.40
2017-08-01T19:09:31.210Z,1.47
2017-08-01T19:12:00.277Z,1.70
2017-08-01T19:14:28.575Z,1.60
2017-08-01T19:16:56.910Z,1.50
2017-08-01T19:19:25.194Z,1.37
2017-08-01T19:21:53.493Z,1.30
2017-08-01T19:24:21.752Z,1.40
2017-08-01T19:26:50.038Z,1.37
2017-08-01T19:29:18.330Z,1.47
2017-08-01T19:31:47.341Z,1.53
2017-08-01T19:34:15.658Z,1.10
2017-08-01T19:36:44.715Z,1.40
2017-08-01T19:39:13.058Z,1.37
2017-08-01T19:41:41.309Z,1.27
2017-08-01T19:44:09.602Z,1.40
2017-08-01T19:46:37.844Z,1.40
2017-08-01T19:49:06.144Z,1.27
2017-08-01T19:51:35.223Z,1.60
2017-08-01T19:54:04.237Z,1.37
2017-08-01T19:56:32.498Z,1.40
2017-08-01T19:59:00.785Z,2.43
2017-08-01T20:01:28.878Z,3.00
2017-08-01T20:03:57.898Z,3.43
2017-08-01T20:06:26.158Z,3.50
2017-08-01T20:08:54.468Z,3.47
2017-08-01T20:11:23.322Z,3.50
2017-08-01T20:13:51.617Z,2.87
2017-08-01T20:16:19.966Z,3.53
2017-08-01T20:18:48.982Z,4.60
2017-08-01T20:21:17.274Z,5.90
2017-08-01T20:23:58.725Z,4.50
2017-08-01T20:26:26.984Z,4.03
2017-08-01T20:28:55.233Z,4.30
2017-08-01T20:31:23.487Z,5.07
2017-08-01T20:33:51.791Z,4.00
2017-08-01T20:36:20.087Z,3.83
2017-08-01T20:38:48.378Z,3.83
2017-08-01T20:41:16.674Z,3.77
2017-08-01T20:43:44.962Z,3.80
2017-08-01T20:46:13.230Z,3.83
2017-08-01T20:48:41.497Z,4.20
2017-08-01T20:51:09.780Z,3.67
2017-08-01T20:53:37.885Z,3.60
2017-08-01T20:56:06.958Z,4.00
2017-08-01T20:58:36.022Z,2.90
2017-08-01T21:01:04.933Z,3.50
2017-08-01T21:03:33.251Z,3.93
2017-08-01T21:06:01.548Z,3.27
2017-08-01T21:08:29.849Z,3.80
2017-08-01T21:10:58.124Z,3.50
2017-08-01T21:13:26.418Z,3.60
2017-08-01T21:15:55.432Z,3.30
2017-08-01T21:18:23.760Z,3.30
2017-08-01T21:20:52.806Z,3.63
2017-08-01T21:23:21.065Z,3.27
2017-08-01T21:25:49.336Z,2.90
2017-08-01T21:28:17.601Z,3.23
2017-08-01T21:30:45.853Z,3.03
2017-08-01T21:33:14.130Z,3.17
2017-08-01T21:35:43.146Z,3.10
2017-08-01T21:38:11.388Z,2.60
2017-08-01T21:40:39.664Z,3.53
2017-08-01T21:43:07.943Z,3.20
2017-08-01T21:45:36.388Z,2.60
2017-08-01T21:48:04.692Z,2.70
2017-08-01T21:50:33.099Z,2.80
2017-08-01T21:53:01.351Z,2.97
2017-08-01T21:55:29.663Z,2.60
2017-08-01T21:57:57.908Z,2.70
2017-08-01T22:00:26.166Z,2.70
2017-08-01T22:02:55.914Z,2.50
2017-08-01T22:05:24.938Z,3.00
2017-08-01T22:07:53.180Z,2.20
2017-08-01T22:10:21.445Z,2.70
2017-08-01T22:12:49.701Z,2.50
2017-08-01T22:15:18.020Z,2.70
2017-08-01T22:17:47.067Z,2.57
2017-08-01T22:20:15.312Z,2.30
2017-08-01T22:22:43.598Z,2.40
2017-08-01T22:25:11.864Z,2.40
2017-08-01T22:27:40.197Z,2.70
2017-08-01T22:30:08.478Z,2.63
2017-08-01T22:32:36.741Z,2.50
2017-08-01T22:35:05.079Z,2.07
2017-08-01T22:37:33.325Z,2.53
2017-08-01T22:40:01.620Z,2.10
2017-08-01T22:42:29.876Z,2.60
2017-08-01T22:44:58.218Z,2.20
2017-08-01T22:47:26.501Z,2.30
2017-08-01T22:49:54.782Z,2.10
2017-08-01T22:52:23.826Z,2.23
2017-08-01T22:54:52.097Z,2.10
2017-08-01T22:57:20.379Z,2.17
2017-08-01T22:59:49.436Z,1.80
2017-08-01T23:02:17.742Z,2.33
2017-08-01T23:04:46.036Z,2.23
2017-08-01T23:07:14.334Z,2.50
2017-08-01T23:09:43.384Z,2.30
2017-08-01T23:12:11.684Z,2.20
2017-08-01T23:14:40.706Z,2.07
2017-08-01T23:17:09.003Z,2.70
2017-08-01T23:19:37.284Z,3.30
2017-08-01T23:22:06.307Z,3.50
2017-08-01T23:24:34.673Z,4.60
2017-08-01T23:27:02.963Z,3.70
2017-08-01T23:29:31.208Z,3.57
2017-08-01T23:31:59.553Z,3.80
2017-08-01T23:34:27.789Z,3.60
2017-08-01T23:36:56.074Z,3.80
2017-08-01T23:39:24.370Z,4.10
2017-08-01T23:41:53.414Z,3.90
2017-08-01T23:44:21.689Z,4.23
2017-08-01T23:46:49.990Z,3.83
2017-08-01T23:49:18.267Z,4.07
2017-08-01T23:51:46.554Z,4.03
2017-08-01T23:54:14.888Z,3.40
2017-08-01T23:56:43.173Z,4.27
2017-08-01T23:59:11.427Z,3.80
